sensor_id;sensor_type;location;lat;lon;timestamp;temperature;humidity
73750;SHT30;62058;48.406;-4.514;2022-11-23T00:01:25;12.99;93.32
73750;SHT30;62058;48.406;-4.514;2022-11-23T00:03:52;12.99;92.78
73750;SHT30;62058;48.406;-4.514;2022-11-23T00:06:19;13.01;91.68
73750;SHT30;62058;48.406;-4.514;2022-11-23T00:08:48;13.07;93.59
73750;SHT30;62058;48.406;-4.514;2022-11-23T00:11:14;13.07;93.39
73750;SHT30;62058;48.406;-4.514;2022-11-23T00:13:40;13.07;93.47
73750;SHT30;62058;48.406;-4.514;2022-11-23T00:16:10;13.11;93.47
73750;SHT30;62058;48.406;-4.514;2022-11-23T00:18:36;13.04;92.23
73750;SHT30;62058;48.406;-4.514;2022-11-23T00:21:09;12.93;91.60
73750;SHT30;62058;48.406;-4.514;2022-11-23T00:23:36;13.00;93.19
73750;SHT30;62058;48.406;-4.514;2022-11-23T00:26:02;12.96;92.27
73750;SHT30;62058;48.406;-4.514;2022-11-23T00:28:28;12.94;93.29
73750;SHT30;62058;48.406;-4.514;2022-11-23T00:30:53;12.93;92.51
73750;SHT30;62058;48.406;-4.514;2022-11-23T00:33:18;12.96;93.15
73750;SHT30;62058;48.406;-4.514;2022-11-23T00:35:44;12.93;93.18
73750;SHT30;62058;48.406;-4.514;2022-11-23T00:38:10;12.94;93.11
73750;SHT30;62058;48.406;-4.514;2022-11-23T00:40:35;12.99;94.04
73750;SHT30;62058;48.406;-4.514;2022-11-23T00:43:00;12.97;93.68
73750;SHT30;62058;48.406;-4.514;2022-11-23T00:45:26;12.93;93.05
73750;SHT30;62058;48.406;-4.514;2022-11-23T00:47:51;12.99;93.39
73750;SHT30;62058;48.406;-4.514;2022-11-23T00:50:16;13.00;93.09
73750;SHT30;62058;48.406;-4.514;2022-11-23T00:52:42;13.06;94.34
73750;SHT30;62058;48.406;-4.514;2022-11-23T00:55:07;13.06;94.02
73750;SHT30;62058;48.406;-4.514;2022-11-23T00:57:33;13.03;93.39
73750;SHT30;62058;48.406;-4.514;2022-11-23T00:59:58;13.07;94.31
73750;SHT30;62058;48.406;-4.514;2022-11-23T01:02:24;13.12;94.13
73750;SHT30;62058;48.406;-4.514;2022-11-23T01:04:49;13.06;93.56
73750;SHT30;62058;48.406;-4.514;2022-11-23T01:07:14;13.04;93.80
73750;SHT30;62058;48.406;-4.514;2022-11-23T01:09:40;13.04;93.19
73750;SHT30;62058;48.406;-4.514;2022-11-23T01:12:05;13.12;93.28
73750;SHT30;62058;48.406;-4.514;2022-11-23T01:14:31;13.17;94.31
73750;SHT30;62058;48.406;-4.514;2022-11-23T01:16:59;13.20;94.29
73750;SHT30;62058;48.406;-4.514;2022-11-23T01:19:24;13.22;93.97
73750;SHT30;62058;48.406;-4.514;2022-11-23T01:21:50;13.22;94.28
73750;SHT30;62058;48.406;-4.514;2022-11-23T01:24:18;13.24;94.25
73750;SHT30;62058;48.406;-4.514;2022-11-23T01:26:44;13.25;94.02
73750;SHT30;62058;48.406;-4.514;2022-11-23T01:29:10;13.28;94.54
73750;SHT30;62058;48.406;-4.514;2022-11-23T01:31:36;13.25;93.24
73750;SHT30;62058;48.406;-4.514;2022-11-23T01:34:02;13.28;93.84
73750;SHT30;62058;48.406;-4.514;2022-11-23T01:36:32;13.30;94.14
73750;SHT30;62058;48.406;-4.514;2022-11-23T01:38:59;13.37;94.45
73750;SHT30;62058;48.406;-4.514;2022-11-23T01:41:28;13.41;94.61
73750;SHT30;62058;48.406;-4.514;2022-11-23T01:43:54;13.44;94.67
73750;SHT30;62058;48.406;-4.514;2022-11-23T01:46:20;13.47;94.01
73750;SHT30;62058;48.406;-4.514;2022-11-23T01:51:30;13.59;94.23
73750;SHT30;62058;48.406;-4.514;2022-11-23T01:54:08;13.63;94.38
73750;SHT30;62058;48.406;-4.514;2022-11-23T01:56:42;13.71;94.66
73750;SHT30;62058;48.406;-4.514;2022-11-23T01:59:10;13.71;93.94
73750;SHT30;62058;48.406;-4.514;2022-11-23T02:01:37;13.71;93.83
73750;SHT30;62058;48.406;-4.514;2022-11-23T02:04:02;13.78;94.30
73750;SHT30;62058;48.406;-4.514;2022-11-23T02:06:29;13.82;94.41
73750;SHT30;62058;48.406;-4.514;2022-11-23T02:08:55;13.76;93.94
73750;SHT30;62058;48.406;-4.514;2022-11-23T02:11:21;13.82;94.82
73750;SHT30;62058;48.406;-4.514;2022-11-23T02:13:49;13.81;94.09
73750;SHT30;62058;48.406;-4.514;2022-11-23T02:16:15;13.79;93.73
73750;SHT30;62058;48.406;-4.514;2022-11-23T02:18:44;13.87;94.30
73750;SHT30;62058;48.406;-4.514;2022-11-23T02:21:11;13.89;93.80
73750;SHT30;62058;48.406;-4.514;2022-11-23T02:23:51;13.86;93.95
73750;SHT30;62058;48.406;-4.514;2022-11-23T02:26:25;13.90;94.12
73750;SHT30;62058;48.406;-4.514;2022-11-23T02:29:00;13.93;94.13
73750;SHT30;62058;48.406;-4.514;2022-11-23T02:31:27;13.93;93.52
73750;SHT30;62058;48.406;-4.514;2022-11-23T02:33:52;13.95;93.28
73750;SHT30;62058;48.406;-4.514;2022-11-23T02:36:34;13.99;94.44
73750;SHT30;62058;48.406;-4.514;2022-11-23T02:39:08;14.01;94.46
73750;SHT30;62058;48.406;-4.514;2022-11-23T02:41:38;13.96;92.49
73750;SHT30;62058;48.406;-4.514;2022-11-23T02:44:08;14.02;93.60
73750;SHT30;62058;48.406;-4.514;2022-11-23T02:46:36;13.98;92.81
73750;SHT30;62058;48.406;-4.514;2022-11-23T02:49:01;14.03;93.64
73750;SHT30;62058;48.406;-4.514;2022-11-23T02:51:27;14.01;94.46
73750;SHT30;62058;48.406;-4.514;2022-11-23T02:53:52;13.95;94.67
73750;SHT30;62058;48.406;-4.514;2022-11-23T02:56:17;13.92;95.21
73750;SHT30;62058;48.406;-4.514;2022-11-23T02:58:43;13.92;94.90
73750;SHT30;62058;48.406;-4.514;2022-11-23T03:01:08;13.89;94.04
73750;SHT30;62058;48.406;-4.514;2022-11-23T03:03:33;13.96;94.58
73750;SHT30;62058;48.406;-4.514;2022-11-23T03:05:59;13.95;94.49
73750;SHT30;62058;48.406;-4.514;2022-11-23T03:08:24;13.92;93.80
73750;SHT30;62058;48.406;-4.514;2022-11-23T03:10:49;13.92;93.35
73750;SHT30;62058;48.406;-4.514;2022-11-23T03:13:15;13.92;93.01
73750;SHT30;62058;48.406;-4.514;2022-11-23T03:15:40;14.06;94.29
73750;SHT30;62058;48.406;-4.514;2022-11-23T03:18:06;14.05;92.83
73750;SHT30;62058;48.406;-4.514;2022-11-23T03:20:31;14.06;92.99
73750;SHT30;62058;48.406;-4.514;2022-11-23T03:22:57;14.05;93.09
73750;SHT30;62058;48.406;-4.514;2022-11-23T03:25:22;14.06;93.46
73750;SHT30;62058;48.406;-4.514;2022-11-23T03:27:47;14.09;94.60
73750;SHT30;62058;48.406;-4.514;2022-11-23T03:30:13;13.99;93.97
73750;SHT30;62058;48.406;-4.514;2022-11-23T03:32:39;13.90;93.37
73750;SHT30;62058;48.406;-4.514;2022-11-23T03:35:04;13.75;97.87
73750;SHT30;62058;48.406;-4.514;2022-11-23T03:37:30;13.73;95.35
73750;SHT30;62058;48.406;-4.514;2022-11-23T03:39:55;13.68;95.42
73750;SHT30;62058;48.406;-4.514;2022-11-23T03:42:21;13.69;97.16
73750;SHT30;62058;48.406;-4.514;2022-11-23T03:44:46;13.58;98.20
73750;SHT30;62058;48.406;-4.514;2022-11-23T03:47:11;13.65;94.40
73750;SHT30;62058;48.406;-4.514;2022-11-23T03:49:37;13.47;91.44
73750;SHT30;62058;48.406;-4.514;2022-11-23T03:52:02;13.59;91.76
73750;SHT30;62058;48.406;-4.514;2022-11-23T03:54:28;13.51;92.07
73750;SHT30;62058;48.406;-4.514;2022-11-23T03:56:53;13.48;92.25
73750;SHT30;62058;48.406;-4.514;2022-11-23T03:59:19;13.42;91.86
73750;SHT30;62058;48.406;-4.514;2022-11-23T04:01:44;13.37;92.28
73750;SHT30;62058;48.406;-4.514;2022-11-23T04:04:09;13.37;92.32
73750;SHT30;62058;48.406;-4.514;2022-11-23T04:06:35;13.31;92.32
73750;SHT30;62058;48.406;-4.514;2022-11-23T04:09:00;13.31;92.44
73750;SHT30;62058;48.406;-4.514;2022-11-23T04:11:25;13.32;92.16
73750;SHT30;62058;48.406;-4.514;2022-11-23T04:13:51;13.34;91.78
73750;SHT30;62058;48.406;-4.514;2022-11-23T04:16:16;13.27;91.87
73750;SHT30;62058;48.406;-4.514;2022-11-23T04:18:41;13.30;91.82
73750;SHT30;62058;48.406;-4.514;2022-11-23T04:21:07;13.25;92.04
73750;SHT30;62058;48.406;-4.514;2022-11-23T04:23:32;13.25;91.78
73750;SHT30;62058;48.406;-4.514;2022-11-23T04:25:58;13.24;91.97
73750;SHT30;62058;48.406;-4.514;2022-11-23T04:28:23;13.17;91.99
73750;SHT30;62058;48.406;-4.514;2022-11-23T04:30:48;13.21;92.01
73750;SHT30;62058;48.406;-4.514;2022-11-23T04:33:14;13.22;91.88
73750;SHT30;62058;48.406;-4.514;2022-11-23T04:35:39;13.25;91.50
73750;SHT30;62058;48.406;-4.514;2022-11-23T04:38:05;13.21;91.52
73750;SHT30;62058;48.406;-4.514;2022-11-23T04:40:30;13.20;91.53
73750;SHT30;62058;48.406;-4.514;2022-11-23T04:42:56;13.21;91.62
73750;SHT30;62058;48.406;-4.514;2022-11-23T04:45:22;13.20;91.61
73750;SHT30;62058;48.406;-4.514;2022-11-23T04:47:48;13.15;91.74
73750;SHT30;62058;48.406;-4.514;2022-11-23T04:50:13;13.06;90.57
73750;SHT30;62058;48.406;-4.514;2022-11-23T04:52:39;13.06;91.03
73750;SHT30;62058;48.406;-4.514;2022-11-23T04:55:05;13.10;90.80
73750;SHT30;62058;48.406;-4.514;2022-11-23T04:57:30;13.03;91.07
73750;SHT30;62058;48.406;-4.514;2022-11-23T04:59:55;12.93;89.54
73750;SHT30;62058;48.406;-4.514;2022-11-23T05:02:21;12.86;89.81
73750;SHT30;62058;48.406;-4.514;2022-11-23T05:04:46;12.80;89.45
73750;SHT30;62058;48.406;-4.514;2022-11-23T05:07:12;12.69;89.72
73750;SHT30;62058;48.406;-4.514;2022-11-23T05:09:37;12.66;88.68
73750;SHT30;62058;48.406;-4.514;2022-11-23T05:12:02;12.61;88.80
73750;SHT30;62058;48.406;-4.514;2022-11-23T05:14:28;12.57;89.55
73750;SHT30;62058;48.406;-4.514;2022-11-23T05:16:53;12.53;88.91
73750;SHT30;62058;48.406;-4.514;2022-11-23T05:19:18;12.53;89.66
73750;SHT30;62058;48.406;-4.514;2022-11-23T05:21:44;12.53;88.04
73750;SHT30;62058;48.406;-4.514;2022-11-23T05:24:09;12.52;87.64
73750;SHT30;62058;48.406;-4.514;2022-11-23T05:26:35;12.39;87.03
73750;SHT30;62058;48.406;-4.514;2022-11-23T05:29:00;12.25;88.26
73750;SHT30;62058;48.406;-4.514;2022-11-23T05:31:25;12.05;87.74
73750;SHT30;62058;48.406;-4.514;2022-11-23T05:33:51;11.92;89.71
73750;SHT30;62058;48.406;-4.514;2022-11-23T05:36:16;11.82;89.66
73750;SHT30;62058;48.406;-4.514;2022-11-23T05:38:41;11.74;89.23
73750;SHT30;62058;48.406;-4.514;2022-11-23T05:41:07;11.64;87.97
73750;SHT30;62058;48.406;-4.514;2022-11-23T05:43:32;11.58;88.62
73750;SHT30;62058;48.406;-4.514;2022-11-23T05:45:59;11.50;87.94
73750;SHT30;62058;48.406;-4.514;2022-11-23T05:48:24;11.45;87.53
73750;SHT30;62058;48.406;-4.514;2022-11-23T05:50:50;11.37;87.60
73750;SHT30;62058;48.406;-4.514;2022-11-23T05:53:15;11.31;87.67
73750;SHT30;62058;48.406;-4.514;2022-11-23T05:55:41;11.31;86.53
73750;SHT30;62058;48.406;-4.514;2022-11-23T05:58:06;11.34;84.47
73750;SHT30;62058;48.406;-4.514;2022-11-23T06:00:32;11.28;85.83
73750;SHT30;62058;48.406;-4.514;2022-11-23T06:02:59;11.27;82.99
73750;SHT30;62058;48.406;-4.514;2022-11-23T06:05:25;11.26;81.73
73750;SHT30;62058;48.406;-4.514;2022-11-23T06:07:53;11.24;84.86
73750;SHT30;62058;48.406;-4.514;2022-11-23T06:10:19;11.22;83.34
73750;SHT30;62058;48.406;-4.514;2022-11-23T06:12:44;11.19;84.94
73750;SHT30;62058;48.406;-4.514;2022-11-23T06:15:10;11.17;83.77
73750;SHT30;62058;48.406;-4.514;2022-11-23T06:17:36;11.27;83.79
73750;SHT30;62058;48.406;-4.514;2022-11-23T06:20:01;11.27;84.84
73750;SHT30;62058;48.406;-4.514;2022-11-23T06:22:26;11.33;86.33
73750;SHT30;62058;48.406;-4.514;2022-11-23T06:24:52;11.34;85.89
73750;SHT30;62058;48.406;-4.514;2022-11-23T06:27:17;11.35;85.38
73750;SHT30;62058;48.406;-4.514;2022-11-23T06:29:43;11.47;86.50
73750;SHT30;62058;48.406;-4.514;2022-11-23T06:32:08;11.55;84.57
73750;SHT30;62058;48.406;-4.514;2022-11-23T06:34:33;11.60;86.83
73750;SHT30;62058;48.406;-4.514;2022-11-23T06:36:59;11.57;86.74
73750;SHT30;62058;48.406;-4.514;2022-11-23T06:39:24;11.55;86.10
73750;SHT30;62058;48.406;-4.514;2022-11-23T06:41:50;11.60;82.96
73750;SHT30;62058;48.406;-4.514;2022-11-23T06:44:15;11.61;82.16
73750;SHT30;62058;48.406;-4.514;2022-11-23T06:46:40;11.58;79.94
73750;SHT30;62058;48.406;-4.514;2022-11-23T06:49:06;11.58;79.37
73750;SHT30;62058;48.406;-4.514;2022-11-23T06:51:31;11.64;79.21
73750;SHT30;62058;48.406;-4.514;2022-11-23T06:53:56;11.57;77.63
73750;SHT30;62058;48.406;-4.514;2022-11-23T06:56:22;11.54;79.96
73750;SHT30;62058;48.406;-4.514;2022-11-23T06:58:47;11.54;81.30
73750;SHT30;62058;48.406;-4.514;2022-11-23T07:01:12;11.54;80.70
73750;SHT30;62058;48.406;-4.514;2022-11-23T07:03:38;11.50;81.23
73750;SHT30;62058;48.406;-4.514;2022-11-23T07:06:05;11.53;79.53
73750;SHT30;62058;48.406;-4.514;2022-11-23T07:08:30;11.51;79.06
73750;SHT30;62058;48.406;-4.514;2022-11-23T07:11:03;11.53;79.56
73750;SHT30;62058;48.406;-4.514;2022-11-23T07:13:31;11.61;78.76
73750;SHT30;62058;48.406;-4.514;2022-11-23T07:15:57;11.61;77.95
73750;SHT30;62058;48.406;-4.514;2022-11-23T07:18:23;11.54;80.52
73750;SHT30;62058;48.406;-4.514;2022-11-23T07:20:50;11.64;78.91
73750;SHT30;62058;48.406;-4.514;2022-11-23T07:23:15;11.64;79.02
73750;SHT30;62058;48.406;-4.514;2022-11-23T07:25:41;11.64;80.90
73750;SHT30;62058;48.406;-4.514;2022-11-23T07:28:06;11.65;80.18
73750;SHT30;62058;48.406;-4.514;2022-11-23T07:30:33;11.71;77.56
73750;SHT30;62058;48.406;-4.514;2022-11-23T07:33:04;11.71;77.28
73750;SHT30;62058;48.406;-4.514;2022-11-23T07:35:30;11.75;76.84
73750;SHT30;62058;48.406;-4.514;2022-11-23T07:37:57;11.71;77.52
73750;SHT30;62058;48.406;-4.514;2022-11-23T07:40:22;11.77;79.80
73750;SHT30;62058;48.406;-4.514;2022-11-23T07:42:48;11.86;80.33
73750;SHT30;62058;48.406;-4.514;2022-11-23T07:45:13;11.89;77.27
73750;SHT30;62058;48.406;-4.514;2022-11-23T07:47:38;12.02;78.48
73750;SHT30;62058;48.406;-4.514;2022-11-23T07:50:06;12.04;80.20
73750;SHT30;62058;48.406;-4.514;2022-11-23T07:52:31;12.01;78.18
73750;SHT30;62058;48.406;-4.514;2022-11-23T07:54:59;12.12;81.09
73750;SHT30;62058;48.406;-4.514;2022-11-23T07:57:25;12.14;80.64
73750;SHT30;62058;48.406;-4.514;2022-11-23T07:59:50;12.18;78.37
73750;SHT30;62058;48.406;-4.514;2022-11-23T08:02:16;12.26;77.83
73750;SHT30;62058;48.406;-4.514;2022-11-23T08:04:41;12.30;79.13
73750;SHT30;62058;48.406;-4.514;2022-11-23T08:07:06;12.37;77.94
73750;SHT30;62058;48.406;-4.514;2022-11-23T08:09:32;12.40;76.06
73750;SHT30;62058;48.406;-4.514;2022-11-23T08:11:57;12.52;74.39
73750;SHT30;62058;48.406;-4.514;2022-11-23T08:14:23;12.55;76.16
73750;SHT30;62058;48.406;-4.514;2022-11-23T08:16:49;12.52;73.77
73750;SHT30;62058;48.406;-4.514;2022-11-23T08:19:15;12.59;73.21
73750;SHT30;62058;48.406;-4.514;2022-11-23T08:21:40;12.49;71.87
73750;SHT30;62058;48.406;-4.514;2022-11-23T08:24:06;12.50;74.08
73750;SHT30;62058;48.406;-4.514;2022-11-23T08:26:31;12.45;72.03
73750;SHT30;62058;48.406;-4.514;2022-11-23T08:28:57;12.42;72.14
73750;SHT30;62058;48.406;-4.514;2022-11-23T08:31:22;12.50;74.38
73750;SHT30;62058;48.406;-4.514;2022-11-23T08:33:48;12.60;73.47
73750;SHT30;62058;48.406;-4.514;2022-11-23T08:36:15;12.64;71.89
73750;SHT30;62058;48.406;-4.514;2022-11-23T08:38:41;12.67;72.23
73750;SHT30;62058;48.406;-4.514;2022-11-23T08:41:06;12.81;73.96
73750;SHT30;62058;48.406;-4.514;2022-11-23T08:43:32;12.86;76.28
73750;SHT30;62058;48.406;-4.514;2022-11-23T08:45:59;12.96;75.06
73750;SHT30;62058;48.406;-4.514;2022-11-23T08:48:25;13.11;74.53
73750;SHT30;62058;48.406;-4.514;2022-11-23T08:50:51;13.01;74.01
73750;SHT30;62058;48.406;-4.514;2022-11-23T08:53:17;13.01;76.81
73750;SHT30;62058;48.406;-4.514;2022-11-23T08:55:42;11.54;92.52
73750;SHT30;62058;48.406;-4.514;2022-11-23T08:58:08;11.09;93.10
73750;SHT30;62058;48.406;-4.514;2022-11-23T09:00:34;10.73;93.36
73750;SHT30;62058;48.406;-4.514;2022-11-23T09:03:00;10.52;93.55
73750;SHT30;62058;48.406;-4.514;2022-11-23T09:05:27;10.35;93.64
73750;SHT30;62058;48.406;-4.514;2022-11-23T09:07:54;10.25;93.78
73750;SHT30;62058;48.406;-4.514;2022-11-23T09:10:19;10.17;93.84
73750;SHT30;62058;48.406;-4.514;2022-11-23T09:12:46;10.18;93.91
73750;SHT30;62058;48.406;-4.514;2022-11-23T09:15:12;10.24;93.97
73750;SHT30;62058;48.406;-4.514;2022-11-23T09:17:38;10.38;94.03
73750;SHT30;62058;48.406;-4.514;2022-11-23T09:20:03;10.46;94.07
73750;SHT30;62058;48.406;-4.514;2022-11-23T09:22:29;10.51;94.13
73750;SHT30;62058;48.406;-4.514;2022-11-23T09:39:26;10.99;94.25
73750;SHT30;62058;48.406;-4.514;2022-11-23T09:52:28;11.45;94.18
73750;SHT30;62058;48.406;-4.514;2022-11-23T09:55:02;11.47;94.18
73750;SHT30;62058;48.406;-4.514;2022-11-23T10:00:02;11.47;94.18
73750;SHT30;62058;48.406;-4.514;2022-11-23T10:04:58;11.58;94.22
73750;SHT30;62058;48.406;-4.514;2022-11-23T10:15:23;11.98;94.29
73750;SHT30;62058;48.406;-4.514;2022-11-23T10:20:28;11.95;94.30
73750;SHT30;62058;48.406;-4.514;2022-11-23T10:22:58;11.96;94.29
73750;SHT30;62058;48.406;-4.514;2022-11-23T10:27:55;12.06;94.35
73750;SHT30;62058;48.406;-4.514;2022-11-23T10:33:01;12.12;94.38
73750;SHT30;62058;48.406;-4.514;2022-11-23T10:35:31;12.16;94.37
73750;SHT30;62058;48.406;-4.514;2022-11-23T10:38:15;12.09;94.39
73750;SHT30;62058;48.406;-4.514;2022-11-23T10:41:04;12.15;94.43
73750;SHT30;62058;48.406;-4.514;2022-11-23T10:46:30;12.16;94.42
73750;SHT30;62058;48.406;-4.514;2022-11-23T10:49:18;12.09;94.48
73750;SHT30;62058;48.406;-4.514;2022-11-23T10:52:29;12.16;94.46
73750;SHT30;62058;48.406;-4.514;2022-11-23T11:04:49;12.28;94.53
73750;SHT30;62058;48.406;-4.514;2022-11-23T11:07:28;12.32;94.50
73750;SHT30;62058;48.406;-4.514;2022-11-23T11:10:00;12.40;94.57
73750;SHT30;62058;48.406;-4.514;2022-11-23T11:17:33;12.56;94.55
73750;SHT30;62058;48.406;-4.514;2022-11-23T11:20:01;12.61;94.57
73750;SHT30;62058;48.406;-4.514;2022-11-23T11:22:45;12.66;94.59
73750;SHT30;62058;48.406;-4.514;2022-11-23T11:25:37;12.76;94.57
73750;SHT30;62058;48.406;-4.514;2022-11-23T11:28:14;12.83;94.60
73750;SHT30;62058;48.406;-4.514;2022-11-23T11:33:30;13.04;94.57
73750;SHT30;62058;48.406;-4.514;2022-11-23T11:35:57;13.10;94.62
73750;SHT30;62058;48.406;-4.514;2022-11-23T11:38:27;13.28;94.64
73750;SHT30;62058;48.406;-4.514;2022-11-23T11:48:32;13.71;94.62
73750;SHT30;62058;48.406;-4.514;2022-11-23T11:53:42;13.66;94.70
73750;SHT30;62058;48.406;-4.514;2022-11-23T11:56:40;13.55;94.67
73750;SHT30;62058;48.406;-4.514;2022-11-23T11:59:16;13.79;94.70
73750;SHT30;62058;48.406;-4.514;2022-11-23T12:09:19;14.09;94.72
73750;SHT30;62058;48.406;-4.514;2022-11-23T12:11:47;14.09;94.72
73750;SHT30;62058;48.406;-4.514;2022-11-23T12:14:14;14.16;94.72
73750;SHT30;62058;48.406;-4.514;2022-11-23T12:16:55;14.09;94.77
73750;SHT30;62058;48.406;-4.514;2022-11-23T12:41:22;14.20;94.81
73750;SHT30;62058;48.406;-4.514;2022-11-23T12:46:59;14.36;94.82
73750;SHT30;62058;48.406;-4.514;2022-11-23T12:52:35;14.77;94.83
73750;SHT30;62058;48.406;-4.514;2022-11-23T12:55:21;14.92;94.81
73750;SHT30;62058;48.406;-4.514;2022-11-23T12:57:54;14.94;94.83
73750;SHT30;62058;48.406;-4.514;2022-11-23T13:00:22;14.98;94.82
73750;SHT30;62058;48.406;-4.514;2022-11-23T13:08:22;14.92;94.90
73750;SHT30;62058;48.406;-4.514;2022-11-23T13:13:32;15.32;77.05
73750;SHT30;62058;48.406;-4.514;2022-11-23T13:21:39;15.74;70.30
73750;SHT30;62058;48.406;-4.514;2022-11-23T13:40:33;17.35;66.28
73750;SHT30;62058;48.406;-4.514;2022-11-23T13:43:02;17.22;66.98
73750;SHT30;62058;48.406;-4.514;2022-11-23T13:45:32;16.67;70.62
73750;SHT30;62058;48.406;-4.514;2022-11-23T13:50:31;16.06;70.11
73750;SHT30;62058;48.406;-4.514;2022-11-23T13:52:57;15.67;68.47
73750;SHT30;62058;48.406;-4.514;2022-11-23T13:55:30;15.56;68.46
73750;SHT30;62058;48.406;-4.514;2022-11-23T14:00:54;15.21;70.70
73750;SHT30;62058;48.406;-4.514;2022-11-23T14:06:45;13.41;92.82
73750;SHT30;62058;48.406;-4.514;2022-11-23T14:09:32;11.77;93.30
73750;SHT30;62058;48.406;-4.514;2022-11-23T14:14:44;10.93;93.72
73750;SHT30;62058;48.406;-4.514;2022-11-23T14:20:33;12.43;93.92
73750;SHT30;62058;48.406;-4.514;2022-11-23T14:37:07;11.91;94.26
73750;SHT30;62058;48.406;-4.514;2022-11-23T14:42:09;12.49;94.32
73750;SHT30;62058;48.406;-4.514;2022-11-23T14:44:38;12.29;94.38
73750;SHT30;62058;48.406;-4.514;2022-11-23T14:47:05;12.32;94.40
73750;SHT30;62058;48.406;-4.514;2022-11-23T14:49:31;12.32;94.38
73750;SHT30;62058;48.406;-4.514;2022-11-23T14:51:57;12.30;94.44
73750;SHT30;62058;48.406;-4.514;2022-11-23T14:54:24;12.30;94.49
73750;SHT30;62058;48.406;-4.514;2022-11-23T14:56:51;12.26;94.48
73750;SHT30;62058;48.406;-4.514;2022-11-23T15:02:18;12.15;94.58
73750;SHT30;62058;48.406;-4.514;2022-11-23T15:05:04;12.14;94.59
73750;SHT30;62058;48.406;-4.514;2022-11-23T15:07:50;12.14;94.59
73750;SHT30;62058;48.406;-4.514;2022-11-23T15:13:16;12.56;94.59
73750;SHT30;62058;48.406;-4.514;2022-11-23T15:15:44;12.97;94.61
73750;SHT30;62058;48.406;-4.514;2022-11-23T15:18:09;13.18;94.59
73750;SHT30;62058;48.406;-4.514;2022-11-23T15:20:42;13.58;94.62
73750;SHT30;62058;48.406;-4.514;2022-11-23T15:23:22;13.24;94.64
73750;SHT30;62058;48.406;-4.514;2022-11-23T15:25:51;12.90;94.65
73750;SHT30;62058;48.406;-4.514;2022-11-23T15:28:18;12.67;94.68
73750;SHT30;62058;48.406;-4.514;2022-11-23T15:30:45;12.46;94.70
73750;SHT30;62058;48.406;-4.514;2022-11-23T15:33:11;12.43;94.72
73750;SHT30;62058;48.406;-4.514;2022-11-23T15:35:37;12.33;94.72
73750;SHT30;62058;48.406;-4.514;2022-11-23T15:38:08;12.30;94.73
73750;SHT30;62058;48.406;-4.514;2022-11-23T15:40:36;12.32;94.77
73750;SHT30;62058;48.406;-4.514;2022-11-23T15:43:02;12.36;94.75
73750;SHT30;62058;48.406;-4.514;2022-11-23T15:48:29;12.16;94.77
73750;SHT30;62058;48.406;-4.514;2022-11-23T15:50:58;12.16;94.82
73750;SHT30;62058;48.406;-4.514;2022-11-23T15:53:26;12.06;94.81
73750;SHT30;62058;48.406;-4.514;2022-11-23T15:55:54;12.01;94.81
73750;SHT30;62058;48.406;-4.514;2022-11-23T15:58:22;11.91;94.83
73750;SHT30;62058;48.406;-4.514;2022-11-23T16:00:52;11.88;94.84
73750;SHT30;62058;48.406;-4.514;2022-11-23T16:06:32;11.98;94.85
73750;SHT30;62058;48.406;-4.514;2022-11-23T16:08:59;11.98;94.85
73750;SHT30;62058;48.406;-4.514;2022-11-23T16:14:18;11.99;94.89
73750;SHT30;62058;48.406;-4.514;2022-11-23T16:16:46;12.08;94.89
73750;SHT30;62058;48.406;-4.514;2022-11-23T16:19:26;12.08;94.90
73750;SHT30;62058;48.406;-4.514;2022-11-23T16:22:00;12.09;94.91
73750;SHT30;62058;48.406;-4.514;2022-11-23T16:24:28;12.12;94.93
73750;SHT30;62058;48.406;-4.514;2022-11-23T16:26:53;12.02;94.92
73750;SHT30;62058;48.406;-4.514;2022-11-23T16:29:22;11.98;94.93
73750;SHT30;62058;48.406;-4.514;2022-11-23T16:31:53;12.04;94.92
73750;SHT30;62058;48.406;-4.514;2022-11-23T16:34:19;12.01;94.95
73750;SHT30;62058;48.406;-4.514;2022-11-23T16:36:45;11.98;94.96
73750;SHT30;62058;48.406;-4.514;2022-11-23T16:39:11;11.96;94.98
73750;SHT30;62058;48.406;-4.514;2022-11-23T16:41:36;11.95;94.96
73750;SHT30;62058;48.406;-4.514;2022-11-23T16:44:02;11.98;94.98
73750;SHT30;62058;48.406;-4.514;2022-11-23T16:46:27;11.91;94.98
73750;SHT30;62058;48.406;-4.514;2022-11-23T16:48:53;11.98;94.98
73750;SHT30;62058;48.406;-4.514;2022-11-23T16:51:21;11.89;95.02
73750;SHT30;62058;48.406;-4.514;2022-11-23T16:53:47;11.94;95.00
73750;SHT30;62058;48.406;-4.514;2022-11-23T16:56:23;11.96;95.01
73750;SHT30;62058;48.406;-4.514;2022-11-23T16:58:50;11.99;95.00
73750;SHT30;62058;48.406;-4.514;2022-11-23T17:01:18;11.96;95.03
73750;SHT30;62058;48.406;-4.514;2022-11-23T17:03:44;12.02;95.02
73750;SHT30;62058;48.406;-4.514;2022-11-23T17:06:14;11.96;95.06
73750;SHT30;62058;48.406;-4.514;2022-11-23T17:08:41;12.02;95.05
73750;SHT30;62058;48.406;-4.514;2022-11-23T17:11:14;12.01;95.05
73750;SHT30;62058;48.406;-4.514;2022-11-23T17:13:41;12.15;95.07
73750;SHT30;62058;48.406;-4.514;2022-11-23T17:16:18;12.21;95.05
73750;SHT30;62058;48.406;-4.514;2022-11-23T17:18:44;12.29;95.03
73750;SHT30;62058;48.406;-4.514;2022-11-23T17:21:10;12.29;95.09
73750;SHT30;62058;48.406;-4.514;2022-11-23T17:23:37;12.35;95.10
73750;SHT30;62058;48.406;-4.514;2022-11-23T17:28:43;12.37;95.07
73750;SHT30;62058;48.406;-4.514;2022-11-23T17:31:09;12.28;95.08
73750;SHT30;62058;48.406;-4.514;2022-11-23T17:33:34;12.16;95.07
73750;SHT30;62058;48.406;-4.514;2022-11-23T17:35:59;12.04;95.10
73750;SHT30;62058;48.406;-4.514;2022-11-23T17:38:25;12.02;95.11
73750;SHT30;62058;48.406;-4.514;2022-11-23T17:40:51;11.94;95.13
73750;SHT30;62058;48.406;-4.514;2022-11-23T17:43:16;11.88;95.10
73750;SHT30;62058;48.406;-4.514;2022-11-23T17:45:43;11.94;95.12
73750;SHT30;62058;48.406;-4.514;2022-11-23T17:48:10;11.99;95.14
73750;SHT30;62058;48.406;-4.514;2022-11-23T17:50:36;12.04;95.12
73750;SHT30;62058;48.406;-4.514;2022-11-23T17:53:02;12.14;95.13
73750;SHT30;62058;48.406;-4.514;2022-11-23T17:55:27;12.22;95.10
73750;SHT30;62058;48.406;-4.514;2022-11-23T17:57:53;12.18;95.15
73750;SHT30;62058;48.406;-4.514;2022-11-23T18:00:21;11.70;95.11
73750;SHT30;62058;48.406;-4.514;2022-11-23T18:02:47;11.27;95.18
73750;SHT30;62058;48.406;-4.514;2022-11-23T18:05:13;10.97;95.17
73750;SHT30;62058;48.406;-4.514;2022-11-23T18:07:39;10.69;95.17
73750;SHT30;62058;48.406;-4.514;2022-11-23T18:10:06;10.55;95.21
73750;SHT30;62058;48.406;-4.514;2022-11-23T18:12:32;10.45;95.17
73750;SHT30;62058;48.406;-4.514;2022-11-23T18:14:58;10.34;95.20
73750;SHT30;62058;48.406;-4.514;2022-11-23T18:17:23;10.19;95.20
73750;SHT30;62058;48.406;-4.514;2022-11-23T18:19:48;10.09;95.21
73750;SHT30;62058;48.406;-4.514;2022-11-23T18:22:14;10.01;95.22
73750;SHT30;62058;48.406;-4.514;2022-11-23T18:24:39;9.95;95.25
73750;SHT30;62058;48.406;-4.514;2022-11-23T18:27:05;9.95;95.21
73750;SHT30;62058;48.406;-4.514;2022-11-23T18:29:30;9.98;95.24
73750;SHT30;62058;48.406;-4.514;2022-11-23T18:31:56;10.00;95.25